Aérodrome :
LOGIN :

S'inscrire | Disclaimer

   EN    FR    IT 

 










Légende :    VFR   VFR Marginal   IFR   IFR Intensif   IFR Très Intensif
Visi : 
Plafond : 
>= 8 km
>= 3000ft
5 à 8 km
1000 à 3000 ft
1500m à 5 km
500 à 1000 ft
800 à 1500m
200 à 500 ft
< 800m
< 200 ft
Symboles :   Orages  Brouillard  Fortes neiges  Fortes précipitations  Vent > 20 kt
SIGMETs :   Divers  Orages  Givrage  Turbulence  Onde Orograph.  Cendres Volcan.






- Altitude de l'aérodrome : 65 ft
- Code IATA : PMO


LICJ - Palermo Punta Raisi

DERNIER METAR :
  • 042150Z 22017KT CAVOK 25/13 Q1006

METARs EXPIRÉS :
  • 042120Z 22015KT CAVOK 25/13 Q1005
  • 042050Z 21018KT CAVOK 26/11 Q1005
  • 042020Z 21016KT 160V230 CAVOK 27/12 Q1005
  • 041950Z 21015KT CAVOK 27/10 Q1004
  • 041920Z 19020KT CAVOK 28/09 Q1004

TAF TAF LICJ
Valide du 04 à 18h jusqu'au 05 à 18h UTC


041700Z 0418/0518 22017G27KT 9999 SCT030
BECMG 0422/0424 22007KT
TEMPO 0423/0506 4000 SHRA
TEMPO 0506/0512 4000 TSRA
BECMG 0510/0512 28015G25KT



MET'MAP, la Météo Aéronautique d'un coup d'oeil ! - Copyright ORBIFLY Décembre 2007 - Disclaimer

ORBIFLY MET'MAP TEAM :

Programmation & Développement : Alexandra Zaïnal
Sur une idée originale de : Baudouin d'Aumeries
Assistance à la programmation : Marc-Olivier Méhu
Soutien technique & logistique : Manuel Goepfert

Contact : metmap@orbifly.com




SOURCES & CREDITS :

   NOAA